Huvudsida
METAR-TAF:

METAR-TAF

Flygplatser :

Uleåborg, Finland

Uleåborgs flygplats

latitud: 64-56N, longitud: 025-22E, höjd: 12 m

Aktuellt väderrapport

Denna rapport gjordes för 27 minuter sedan, klockan 10:20 UTC
Vind 10 kt från ost/sydost
Temperatur -7°C
Fuktighet 86%
Tryck 1006 hPa
Sikt 10 km eller mer

METAR: EFOU 171020Z AUTO 12010KT 9999 BKN022/// BKN029/// M07/M09 Q1006

Tid: 12:47 (10:47 UTC)

Väderprognos

Denna rapport gjordes för 2 timmar och 9 minuter sedan, klockan 08:38 UTC
Prognos gäller från 17 kl. 09 UTC till 18 kl. 09 UTC
Vind 12 kt från sydost
Sikt 10 km eller mer
Brutna moln på en höjd av 2500 ft
Temporärt
från 17 kl. 09 UTC till 17 kl. 11 UTC
Brutna moln på en höjd av 1400 ft
Temporärt
från 17 kl. 11 UTC till 17 kl. 16 UTC
Sikt: 3000 m
Brutna moln på en höjd av 1000 ft
lätt snö
Temporärt
från 18 kl. 02 UTC till 18 kl. 09 UTC
Sikt: 3000 m
lätt snö

TAF: EFOU 170838Z 1709/1809 13012KT 9999 BKN025 TEMPO 1709/1711 BKN014 TEMPO 1711/1716 3000 -SN BKN010 TEMPO 1802/1809 3000 -SN

Aktuella väderrapporter och prognoser från 4000 flygplatser (METAR- och TAF-rapporter).

De tillgängliga stationerna syns som gula och röda prickar på kartan.

För musen över prickarna för att se namnen på stationerna.

Klicka sedan för att få väderrapporter och prognoser.

För att ändra kartan: Klicka på de gröna knapparna med ett svart kors på för att zooma in; den gröna knappen med ett streck på för att zooma ut; eller på de gröna pilarna för angränsande kartor.


METAR-TAF: